createdAt,value
2018-09-06T00:01:10.917Z,24.30
2018-09-06T00:03:39.659Z,24.20
2018-09-06T00:06:08.556Z,24.20
2018-09-06T00:08:37.363Z,24.20
2018-09-06T00:11:06.161Z,24.20
2018-09-06T00:13:34.809Z,24.20
2018-09-06T00:16:03.589Z,24.30
2018-09-06T00:18:32.617Z,24.20
2018-09-06T00:21:01.464Z,24.30
2018-09-06T00:23:30.396Z,24.30
2018-09-06T00:25:59.295Z,24.30
2018-09-06T00:28:28.184Z,24.20
2018-09-06T00:30:57.077Z,24.30
2018-09-06T00:33:25.684Z,24.20
2018-09-06T00:35:54.691Z,24.20
2018-09-06T00:38:23.482Z,24.20
2018-09-06T00:40:52.396Z,24.20
2018-09-06T00:43:21.184Z,24.20
2018-09-06T00:45:49.948Z,24.10
2018-09-06T00:48:18.817Z,24.10
2018-09-06T00:50:47.643Z,24.20
2018-09-06T00:53:16.675Z,24.10
2018-09-06T00:55:45.667Z,24.10
2018-09-06T00:58:14.367Z,24.00
2018-09-06T01:00:43.080Z,23.90
2018-09-06T01:03:11.763Z,23.80
2018-09-06T01:05:40.504Z,23.80
2018-09-06T01:08:09.311Z,23.70
2018-09-06T01:10:38.095Z,23.70
2018-09-06T01:13:06.958Z,23.90
2018-09-06T01:15:35.770Z,23.80
2018-09-06T01:18:04.784Z,23.60
2018-09-06T01:20:33.527Z,23.50
2018-09-06T01:23:02.380Z,23.40
2018-09-06T01:25:36.543Z,23.20
2018-09-06T01:28:05.352Z,23.10
2018-09-06T01:30:34.134Z,23.00
2018-09-06T01:33:02.803Z,23.00
2018-09-06T01:35:31.450Z,22.90
2018-09-06T01:38:00.582Z,22.80
2018-09-06T01:40:29.570Z,22.80
2018-09-06T01:42:58.479Z,22.80
2018-09-06T01:45:27.248Z,22.80
2018-09-06T01:47:55.986Z,22.80
2018-09-06T01:50:24.932Z,22.80
2018-09-06T01:52:53.814Z,22.70
2018-09-06T01:55:22.631Z,22.60
2018-09-06T01:57:51.493Z,22.50
2018-09-06T02:00:20.283Z,22.60
2018-09-06T02:02:49.008Z,22.70
2018-09-06T02:05:23.007Z,22.60
2018-09-06T02:07:51.547Z,22.50
2018-09-06T02:10:20.387Z,22.60
2018-09-06T02:12:49.172Z,22.60
2018-09-06T02:15:17.919Z,22.80
2018-09-06T02:17:46.736Z,22.90
2018-09-06T02:20:15.563Z,22.90
2018-09-06T02:22:44.292Z,22.80
2018-09-06T02:25:12.836Z,22.70
2018-09-06T02:27:41.561Z,22.60
2018-09-06T02:30:10.451Z,22.60
2018-09-06T02:32:39.264Z,22.50
2018-09-06T02:35:08.026Z,22.50
2018-09-06T02:37:37.145Z,22.50
2018-09-06T02:40:06.146Z,22.60
2018-09-06T02:42:34.900Z,22.70
2018-09-06T02:45:03.892Z,22.70
2018-09-06T02:47:32.779Z,22.80
2018-09-06T02:50:07.056Z,22.80
2018-09-06T02:52:35.808Z,22.70
2018-09-06T02:55:04.596Z,22.60
2018-09-06T02:57:33.580Z,22.60
2018-09-06T03:00:02.409Z,22.40
2018-09-06T03:02:31.240Z,22.30
2018-09-06T03:04:59.923Z,22.30
2018-09-06T03:07:28.820Z,22.30
2018-09-06T03:09:57.644Z,22.30
2018-09-06T03:12:26.373Z,22.30
2018-09-06T03:14:55.504Z,22.30
2018-09-06T03:17:24.492Z,22.30
2018-09-06T03:19:53.267Z,22.40
2018-09-06T03:22:22.020Z,22.30
2018-09-06T03:24:50.751Z,22.30
2018-09-06T03:27:19.636Z,22.30
2018-09-06T03:29:48.632Z,22.50
2018-09-06T03:32:17.648Z,22.30
2018-09-06T03:34:46.406Z,22.30
2018-09-06T03:37:15.344Z,22.20
2018-09-06T03:39:44.020Z,22.10
2018-09-06T03:42:12.799Z,22.20
2018-09-06T03:44:41.488Z,22.20
2018-09-06T03:47:10.460Z,22.20
2018-09-06T03:49:39.338Z,22.10
2018-09-06T03:52:08.262Z,22.00
2018-09-06T03:54:37.211Z,22.10
2018-09-06T03:57:06.462Z,22.00
2018-09-06T03:59:35.420Z,22.10
2018-09-06T04:02:04.185Z,22.10
2018-09-06T04:04:33.035Z,22.00
2018-09-06T04:07:01.731Z,21.90
2018-09-06T04:09:30.152Z,22.00
2018-09-06T04:11:58.918Z,22.10
2018-09-06T04:14:27.616Z,22.10
2018-09-06T04:16:56.573Z,21.90
2018-09-06T04:19:25.510Z,21.90
2018-09-06T04:21:54.181Z,21.90
2018-09-06T04:24:23.114Z,21.90
2018-09-06T04:26:51.828Z,21.80
2018-09-06T04:29:20.727Z,21.80
2018-09-06T04:31:49.675Z,21.90
2018-09-06T04:34:18.557Z,22.00
2018-09-06T04:36:48.570Z,21.90
2018-09-06T04:39:17.482Z,21.90
2018-09-06T04:41:46.072Z,22.00
2018-09-06T04:44:15.029Z,21.80
2018-09-06T04:46:43.884Z,21.90
2018-09-06T04:49:12.896Z,21.90
2018-09-06T04:51:41.747Z,22.10
2018-09-06T04:54:10.564Z,22.10
2018-09-06T04:56:39.274Z,22.30
2018-09-06T04:59:08.274Z,22.30
2018-09-06T05:01:37.251Z,22.40
2018-09-06T05:04:06.374Z,22.40
2018-09-06T05:06:35.064Z,22.50
2018-09-06T05:09:05.498Z,22.80
2018-09-06T05:11:34.275Z,23.00
2018-09-06T05:14:02.970Z,23.20
2018-09-06T05:16:31.943Z,23.20
2018-09-06T05:19:00.952Z,23.20
2018-09-06T05:21:29.650Z,23.30
2018-09-06T05:23:58.351Z,23.00
2018-09-06T05:26:27.087Z,22.90
2018-09-06T05:28:55.858Z,22.90
2018-09-06T05:31:24.675Z,22.90
2018-09-06T05:33:53.442Z,23.10
2018-09-06T05:36:22.363Z,23.00
2018-09-06T05:38:51.155Z,23.10
2018-09-06T05:42:07.765Z,23.20
2018-09-06T05:44:36.734Z,23.30
2018-09-06T05:47:05.538Z,23.50
2018-09-06T05:49:34.338Z,23.50
2018-09-06T05:52:02.980Z,23.60
2018-09-06T05:54:32.121Z,23.70
2018-09-06T05:57:00.884Z,23.60
2018-09-06T05:59:29.744Z,23.90
2018-09-06T06:01:58.552Z,23.90
2018-09-06T06:04:27.463Z,24.00
2018-09-06T06:06:56.468Z,23.90
2018-09-06T06:09:25.258Z,24.00
2018-09-06T06:11:53.941Z,24.10
2018-09-06T06:14:22.732Z,24.20
2018-09-06T06:16:51.577Z,24.40
2018-09-06T06:19:20.483Z,24.70
2018-09-06T06:21:49.459Z,24.70
2018-09-06T06:24:18.355Z,25.70
2018-09-06T06:26:47.208Z,26.70
2018-09-06T06:29:15.943Z,27.70
2018-09-06T06:31:45.031Z,28.50
2018-09-06T06:34:13.846Z,28.90
2018-09-06T06:36:42.690Z,29.50
2018-09-06T06:39:12.653Z,29.90
2018-09-06T06:41:41.643Z,30.50
2018-09-06T06:44:10.896Z,31.40
2018-09-06T06:46:39.598Z,31.50
2018-09-06T06:49:08.486Z,31.50
2018-09-06T06:51:37.209Z,31.70
2018-09-06T06:54:06.190Z,32.10
2018-09-06T06:56:35.108Z,32.60
2018-09-06T06:59:04.146Z,33.20
2018-09-06T07:01:33.127Z,33.30
2018-09-06T07:04:02.010Z,33.80
2018-09-06T07:06:30.819Z,34.00
2018-09-06T07:08:59.435Z,34.20
2018-09-06T07:11:28.389Z,33.70
2018-09-06T07:13:57.096Z,34.00
2018-09-06T07:16:25.876Z,34.50
2018-09-06T07:18:54.780Z,34.60
2018-09-06T07:21:23.575Z,34.70
2018-09-06T07:23:52.545Z,34.60
2018-09-06T07:26:21.319Z,33.70
2018-09-06T07:28:50.148Z,33.90
2018-09-06T07:31:19.100Z,33.50
2018-09-06T07:33:48.058Z,32.90
2018-09-06T07:36:16.886Z,32.20
2018-09-06T07:38:45.691Z,32.60
2018-09-06T07:41:14.407Z,33.60
2018-09-06T07:43:43.266Z,33.60
2018-09-06T07:46:12.359Z,33.70
2018-09-06T07:48:41.612Z,33.60
2018-09-06T07:51:10.343Z,33.40
2018-09-06T07:53:39.315Z,34.00
2018-09-06T07:56:08.348Z,33.80
2018-09-06T07:58:37.303Z,34.00
2018-09-06T08:01:06.349Z,34.00
2018-09-06T08:03:35.201Z,33.50
2018-09-06T08:06:03.954Z,33.90
2018-09-06T08:08:32.668Z,34.10
2018-09-06T08:11:05.645Z,34.00
2018-09-06T08:13:34.878Z,34.20
2018-09-06T08:16:04.000Z,34.00
2018-09-06T08:18:33.138Z,34.30
2018-09-06T08:21:02.156Z,33.70
2018-09-06T08:23:31.331Z,34.00
2018-09-06T08:26:00.424Z,34.20
2018-09-06T08:28:29.329Z,34.10
2018-09-06T08:30:58.469Z,33.70
2018-09-06T08:33:27.724Z,34.10
2018-09-06T08:35:56.830Z,33.90
2018-09-06T08:38:25.732Z,33.70
2018-09-06T08:40:54.819Z,33.30
2018-09-06T08:43:23.885Z,33.40
2018-09-06T08:45:52.948Z,33.70
2018-09-06T08:48:22.173Z,33.40
2018-09-06T08:50:51.306Z,34.00
2018-09-06T08:53:20.463Z,34.00
2018-09-06T08:55:49.860Z,33.60
2018-09-06T08:58:19.058Z,33.60
2018-09-06T09:00:53.576Z,33.60
2018-09-06T09:03:22.612Z,33.30
2018-09-06T09:05:51.947Z,33.50
2018-09-06T09:08:21.371Z,33.90
2018-09-06T09:10:50.399Z,33.40
2018-09-06T09:13:19.579Z,34.10
2018-09-06T09:15:48.630Z,34.30
2018-09-06T09:18:17.824Z,34.10
2018-09-06T09:20:46.987Z,34.10
2018-09-06T09:23:16.208Z,34.00
2018-09-06T09:25:45.308Z,34.00
2018-09-06T09:28:14.274Z,34.00
2018-09-06T09:30:43.026Z,33.70
2018-09-06T09:33:12.024Z,33.50
2018-09-06T09:35:40.755Z,33.50
2018-09-06T09:38:09.503Z,33.40
2018-09-06T09:40:38.423Z,33.30
2018-09-06T09:43:06.989Z,33.30
2018-09-06T09:45:35.755Z,33.40
2018-09-06T09:48:04.571Z,33.60
2018-09-06T09:53:01.508Z,33.60
2018-09-06T09:55:30.272Z,34.00
2018-09-06T09:57:59.288Z,34.00
2018-09-06T10:00:32.960Z,33.80
2018-09-06T10:03:06.934Z,34.10
2018-09-06T10:05:41.218Z,34.30
2018-09-06T10:08:15.533Z,34.00
2018-09-06T10:10:44.263Z,33.90
2018-09-06T10:13:13.099Z,33.80
2018-09-06T10:15:42.008Z,34.00
2018-09-06T10:18:10.737Z,34.10
2018-09-06T10:20:39.779Z,33.80
2018-09-06T10:23:08.730Z,34.00
2018-09-06T10:25:37.661Z,34.50
2018-09-06T10:28:06.523Z,34.40
2018-09-06T10:30:35.531Z,33.60
2018-09-06T10:33:04.510Z,33.90
2018-09-06T10:35:33.626Z,34.70
2018-09-06T10:38:02.419Z,35.50
2018-09-06T10:40:31.377Z,35.30
2018-09-06T10:43:00.457Z,35.50
2018-09-06T10:45:29.248Z,35.20
2018-09-06T10:47:58.163Z,35.20
2018-09-06T10:50:26.979Z,35.30
2018-09-06T10:52:55.966Z,35.40
2018-09-06T10:55:24.753Z,35.80
2018-09-06T10:57:53.867Z,36.00
2018-09-06T11:00:22.673Z,36.30
2018-09-06T11:02:51.660Z,36.20
2018-09-06T11:05:20.416Z,36.60
2018-09-06T11:07:49.228Z,36.50
2018-09-06T11:10:18.102Z,36.10
2018-09-06T11:12:46.798Z,35.10
2018-09-06T11:15:15.904Z,34.40
2018-09-06T11:17:44.782Z,35.30
2018-09-06T11:20:13.516Z,34.70
2018-09-06T11:22:42.734Z,35.60
2018-09-06T11:25:11.404Z,36.40
2018-09-06T11:27:40.321Z,36.70
2018-09-06T11:30:09.044Z,37.50
2018-09-06T11:32:37.902Z,37.30
2018-09-06T11:35:06.807Z,37.30
2018-09-06T11:37:35.592Z,37.70
2018-09-06T11:40:04.509Z,38.00
2018-09-06T11:42:33.316Z,37.70
2018-09-06T11:45:02.363Z,36.60
2018-09-06T11:47:31.125Z,36.70
2018-09-06T11:50:00.031Z,36.90
2018-09-06T11:52:28.849Z,37.30
2018-09-06T11:54:57.604Z,37.30
2018-09-06T11:57:26.440Z,37.00
2018-09-06T11:59:55.142Z,37.20
2018-09-06T12:02:24.090Z,37.30
2018-09-06T12:04:52.908Z,37.10
2018-09-06T12:07:21.850Z,37.40
2018-09-06T12:09:50.651Z,37.50
2018-09-06T12:12:19.532Z,37.30
2018-09-06T12:14:48.266Z,37.10
2018-09-06T12:17:16.699Z,36.90
2018-09-06T12:19:45.603Z,36.70
2018-09-06T12:22:14.295Z,37.10
2018-09-06T12:24:43.259Z,37.20
2018-09-06T12:27:12.468Z,37.50
2018-09-06T12:29:41.257Z,37.30
2018-09-06T12:32:10.067Z,37.10
2018-09-06T12:34:38.984Z,36.40
2018-09-06T12:37:11.944Z,36.20
2018-09-06T12:39:41.359Z,36.30
2018-09-06T12:42:10.204Z,36.40
2018-09-06T12:44:39.220Z,35.80
2018-09-06T12:47:07.916Z,36.20
2018-09-06T12:49:36.891Z,35.80
2018-09-06T12:52:05.800Z,35.70
2018-09-06T12:54:35.066Z,35.70
2018-09-06T12:57:03.896Z,34.70
2018-09-06T12:59:32.752Z,34.30
2018-09-06T13:02:01.650Z,34.10
2018-09-06T13:04:30.420Z,34.20
2018-09-06T13:06:59.117Z,34.40
2018-09-06T13:09:27.911Z,34.40
2018-09-06T13:11:56.827Z,34.10
2018-09-06T13:14:25.504Z,34.40
2018-09-06T13:16:54.196Z,34.00
2018-09-06T13:19:23.091Z,33.90
2018-09-06T13:21:51.744Z,33.80
2018-09-06T13:24:20.517Z,33.90
2018-09-06T13:26:49.318Z,33.90
2018-09-06T13:29:18.093Z,33.70
2018-09-06T13:31:46.891Z,32.70
2018-09-06T13:34:15.872Z,32.70
2018-09-06T13:36:44.503Z,32.10
2018-09-06T13:39:13.354Z,32.10
2018-09-06T13:41:42.078Z,32.70
2018-09-06T13:44:10.922Z,32.80
2018-09-06T13:46:39.751Z,32.90
2018-09-06T13:49:08.702Z,32.90
2018-09-06T13:51:37.507Z,31.60
2018-09-06T13:54:06.276Z,31.00
2018-09-06T13:56:35.283Z,31.70
2018-09-06T13:59:04.187Z,31.90
2018-09-06T14:01:33.191Z,31.10
2018-09-06T14:04:01.746Z,31.60
2018-09-06T14:06:30.846Z,32.10
2018-09-06T14:08:59.824Z,32.10
2018-09-06T14:11:28.541Z,32.30
2018-09-06T14:13:57.296Z,32.20
2018-09-06T14:16:26.109Z,31.70
2018-09-06T14:18:55.073Z,31.80
2018-09-06T14:21:23.894Z,30.80
2018-09-06T14:23:52.666Z,31.40
2018-09-06T14:26:21.765Z,31.30
2018-09-06T14:28:50.521Z,31.30
2018-09-06T14:31:19.566Z,31.40
2018-09-06T14:33:48.527Z,30.60
2018-09-06T14:36:17.351Z,31.10
2018-09-06T14:38:46.228Z,31.40
2018-09-06T14:41:15.004Z,30.80
2018-09-06T14:43:43.877Z,31.20
2018-09-06T14:46:12.664Z,31.60
2018-09-06T14:48:41.664Z,31.60
2018-09-06T14:51:10.510Z,31.40
2018-09-06T14:53:39.359Z,31.30
2018-09-06T14:56:08.847Z,31.20
2018-09-06T14:58:37.983Z,30.20
2018-09-06T15:01:06.843Z,30.20
2018-09-06T15:03:35.821Z,30.50
2018-09-06T15:06:04.615Z,30.70
2018-09-06T15:08:33.356Z,30.70
2018-09-06T15:11:01.995Z,30.60
2018-09-06T15:13:30.898Z,30.80
2018-09-06T15:15:59.812Z,30.80
2018-09-06T15:18:28.544Z,30.90
2018-09-06T15:20:57.280Z,29.80
2018-09-06T15:23:26.122Z,29.70
2018-09-06T15:25:54.867Z,29.20
2018-09-06T15:28:23.643Z,29.30
2018-09-06T15:30:52.499Z,29.90
2018-09-06T15:33:21.310Z,30.00
2018-09-06T15:35:50.258Z,30.20
2018-09-06T15:38:18.994Z,30.50
2018-09-06T15:40:47.633Z,30.60
2018-09-06T15:43:16.480Z,30.40
2018-09-06T15:45:45.271Z,29.60
2018-09-06T15:48:14.218Z,30.00
2018-09-06T15:50:42.899Z,30.00
2018-09-06T15:53:11.779Z,30.30
2018-09-06T15:55:40.599Z,30.50
2018-09-06T15:58:09.329Z,30.30
2018-09-06T16:00:38.067Z,30.50
2018-09-06T16:03:06.748Z,30.30
2018-09-06T16:05:35.615Z,29.80
2018-09-06T16:08:04.298Z,29.30
2018-09-06T16:10:33.088Z,28.80
2018-09-06T16:13:01.892Z,29.30
2018-09-06T16:15:30.626Z,29.60
2018-09-06T16:17:59.459Z,29.40
2018-09-06T16:20:28.134Z,28.80
2018-09-06T16:23:02.091Z,29.20
2018-09-06T16:25:31.043Z,29.30
2018-09-06T16:28:00.546Z,29.20
2018-09-06T16:30:31.321Z,28.40
2018-09-06T16:33:00.891Z,28.10
2018-09-06T16:35:30.887Z,28.30
2018-09-06T16:37:59.890Z,28.60
2018-09-06T16:40:29.119Z,28.90
2018-09-06T16:42:58.076Z,28.60
2018-09-06T16:45:26.732Z,27.90
2018-09-06T16:47:55.570Z,27.80
2018-09-06T16:50:24.275Z,27.70
2018-09-06T16:52:53.043Z,28.20
2018-09-06T16:55:21.869Z,28.00
2018-09-06T16:57:50.607Z,28.30
2018-09-06T17:00:19.547Z,27.90
2018-09-06T17:02:48.197Z,27.10
2018-09-06T17:05:17.078Z,26.60
2018-09-06T17:07:46.087Z,26.30
2018-09-06T17:10:15.256Z,26.00
2018-09-06T17:12:44.256Z,26.00
2018-09-06T17:15:12.987Z,26.10
2018-09-06T17:17:42.070Z,25.80
2018-09-06T17:20:10.712Z,26.00
2018-09-06T17:22:39.594Z,25.80
2018-09-06T17:25:08.458Z,25.80
2018-09-06T17:27:37.288Z,25.80
2018-09-06T17:30:06.535Z,25.80
2018-09-06T17:32:35.511Z,25.70
2018-09-06T17:35:04.559Z,25.80
2018-09-06T17:37:33.356Z,25.80
2018-09-06T17:40:02.109Z,25.80
2018-09-06T17:42:31.960Z,25.80
2018-09-06T17:45:00.647Z,25.90
2018-09-06T17:47:29.454Z,25.90
2018-09-06T17:49:58.196Z,25.80
2018-09-06T17:52:27.004Z,25.60
2018-09-06T17:54:55.823Z,25.40
2018-09-06T17:57:24.528Z,25.50
2018-09-06T17:59:53.367Z,25.60
2018-09-06T18:02:22.220Z,25.60
2018-09-06T18:04:51.162Z,25.50
2018-09-06T18:07:19.904Z,25.80
2018-09-06T18:09:48.925Z,25.70
2018-09-06T18:12:18.062Z,25.80
2018-09-06T18:14:46.756Z,25.60
2018-09-06T18:17:15.607Z,25.50
2018-09-06T18:19:44.487Z,25.60
2018-09-06T18:22:13.231Z,25.40
2018-09-06T18:24:42.103Z,25.30
2018-09-06T18:27:10.877Z,25.40
2018-09-06T18:29:39.658Z,25.40
2018-09-06T18:32:08.411Z,25.30
2018-09-06T18:34:37.331Z,25.60
2018-09-06T18:37:06.118Z,25.70
2018-09-06T18:39:34.747Z,25.60
2018-09-06T18:42:03.534Z,25.40
2018-09-06T18:44:32.368Z,25.20
2018-09-06T18:47:01.150Z,25.30
2018-09-06T18:49:29.872Z,25.40
2018-09-06T18:51:58.662Z,25.30
2018-09-06T18:54:27.490Z,25.40
2018-09-06T18:56:56.238Z,25.40
2018-09-06T18:59:24.935Z,25.30
2018-09-06T19:01:53.812Z,25.40
2018-09-06T19:04:22.670Z,25.50
2018-09-06T19:06:51.568Z,25.50
2018-09-06T19:09:20.522Z,25.50
2018-09-06T19:11:49.454Z,25.50
2018-09-06T19:14:18.241Z,25.70
2018-09-06T19:16:47.228Z,25.70
2018-09-06T19:19:16.401Z,25.80
2018-09-06T19:21:45.543Z,25.80
2018-09-06T19:24:14.529Z,25.60
2018-09-06T19:26:43.711Z,25.50
2018-09-06T19:29:12.561Z,25.40
2018-09-06T19:31:41.575Z,25.40
2018-09-06T19:34:10.352Z,25.40
2018-09-06T19:36:39.281Z,25.20
2018-09-06T19:39:10.533Z,25.10
2018-09-06T19:41:39.489Z,25.20
2018-09-06T19:44:08.432Z,25.10
2018-09-06T19:46:37.462Z,25.10
2018-09-06T19:49:06.504Z,25.10
2018-09-06T19:51:35.146Z,25.10
2018-09-06T19:54:04.189Z,25.10
2018-09-06T19:56:32.953Z,25.00
2018-09-06T19:59:01.836Z,24.90
2018-09-06T20:01:30.640Z,24.90
2018-09-06T20:03:59.527Z,25.00
2018-09-06T20:06:28.305Z,25.10
2018-09-06T20:08:57.077Z,25.10
2018-09-06T20:11:25.991Z,25.40
2018-09-06T20:13:54.768Z,25.30
2018-09-06T20:16:23.867Z,25.20
2018-09-06T20:18:52.572Z,25.00
2018-09-06T20:21:21.319Z,25.10
2018-09-06T20:23:50.438Z,25.20
2018-09-06T20:26:19.145Z,25.00
2018-09-06T20:28:47.847Z,25.00
2018-09-06T20:31:16.794Z,25.10
2018-09-06T20:33:45.721Z,25.10
2018-09-06T20:36:14.610Z,25.30
2018-09-06T20:38:43.399Z,25.00
2018-09-06T20:41:12.171Z,24.90
2018-09-06T20:43:41.171Z,25.10
2018-09-06T20:46:10.040Z,24.90
2018-09-06T20:48:38.767Z,24.80
2018-09-06T20:51:07.712Z,24.70
2018-09-06T20:53:36.539Z,24.60
2018-09-06T20:56:05.212Z,24.40
2018-09-06T20:58:34.077Z,24.50
2018-09-06T21:01:02.789Z,24.60
2018-09-06T21:03:31.569Z,24.50
2018-09-06T21:06:00.452Z,24.60
2018-09-06T21:08:29.524Z,24.70
2018-09-06T21:10:58.255Z,24.70
2018-09-06T21:13:27.027Z,24.80
2018-09-06T21:15:55.711Z,24.90
2018-09-06T21:18:24.668Z,25.10
2018-09-06T21:20:53.584Z,25.10
2018-09-06T21:23:22.574Z,25.20
2018-09-06T21:25:51.604Z,25.20
2018-09-06T21:28:20.519Z,25.00
2018-09-06T21:30:49.441Z,24.80
2018-09-06T21:33:18.315Z,24.60
2018-09-06T21:35:47.121Z,24.70
2018-09-06T21:38:15.825Z,24.60
2018-09-06T21:40:44.912Z,24.80
2018-09-06T21:43:13.993Z,25.00
2018-09-06T21:45:43.237Z,24.80
2018-09-06T21:48:12.498Z,24.90
2018-09-06T21:50:41.583Z,24.60
2018-09-06T21:53:10.727Z,24.60
2018-09-06T21:55:39.701Z,24.50
2018-09-06T21:58:08.867Z,24.40
2018-09-06T22:00:37.964Z,24.30
2018-09-06T22:04:14.472Z,24.30
2018-09-06T22:06:43.837Z,24.50
2018-09-06T22:09:13.271Z,24.60
2018-09-06T22:11:42.366Z,24.60
2018-09-06T22:14:11.430Z,24.80
2018-09-06T22:16:40.681Z,24.70
2018-09-06T22:19:10.204Z,25.10
2018-09-06T22:21:40.000Z,25.20
2018-09-06T22:24:09.090Z,25.40
2018-09-06T22:26:38.495Z,25.40
2018-09-06T22:29:07.611Z,25.50
2018-09-06T22:31:36.865Z,25.40
2018-09-06T22:34:06.233Z,25.40
2018-09-06T22:36:35.540Z,25.50
2018-09-06T22:39:06.682Z,25.40
2018-09-06T22:41:36.185Z,25.40
2018-09-06T22:44:05.375Z,25.60
2018-09-06T22:46:34.381Z,25.60
2018-09-06T22:49:03.758Z,25.00
2018-09-06T22:51:32.816Z,24.90
2018-09-06T22:54:01.811Z,24.50
2018-09-06T22:56:31.062Z,24.20
2018-09-06T22:59:00.072Z,23.90
2018-09-06T23:01:29.068Z,24.30
2018-09-06T23:03:58.140Z,24.60
2018-09-06T23:06:27.404Z,24.80
2018-09-06T23:08:56.481Z,24.70
2018-09-06T23:11:26.453Z,24.30
2018-09-06T23:13:55.349Z,23.50
2018-09-06T23:16:24.294Z,23.00
2018-09-06T23:18:53.315Z,22.70
2018-09-06T23:21:22.334Z,23.00
2018-09-06T23:23:51.214Z,23.20
2018-09-06T23:26:20.166Z,23.30
2018-09-06T23:28:49.065Z,23.10
2018-09-06T23:31:18.152Z,23.20
2018-09-06T23:33:47.155Z,23.20
2018-09-06T23:36:16.244Z,23.30
2018-09-06T23:38:45.685Z,23.50
2018-09-06T23:41:14.622Z,23.40
2018-09-06T23:43:44.025Z,23.60
2018-09-06T23:46:13.116Z,23.50
2018-09-06T23:48:42.365Z,23.40
2018-09-06T23:51:11.557Z,23.60
2018-09-06T23:53:40.654Z,23.50
2018-09-06T23:56:09.560Z,23.40
2018-09-06T23:58:38.598Z,23.30
